createdAt,value
2022-12-05T00:00:32.800Z,98.08
2022-12-05T00:01:32.883Z,97.98
2022-12-05T00:02:33.451Z,98.08
2022-12-05T00:03:33.398Z,97.98
2022-12-05T00:04:33.438Z,98.19
2022-12-05T00:05:32.753Z,97.94
2022-12-05T00:06:32.754Z,97.83
2022-12-05T00:07:33.462Z,98.25
2022-12-05T00:08:32.730Z,97.72
2022-12-05T00:09:33.398Z,97.62
2022-12-05T00:10:32.716Z,97.72
2022-12-05T00:11:32.707Z,98.04
2022-12-05T00:12:32.702Z,97.72
2022-12-05T00:13:32.690Z,97.62
2022-12-05T00:14:33.316Z,97.72
2022-12-05T00:15:32.684Z,97.83
2022-12-05T00:16:32.763Z,97.77
2022-12-05T00:17:33.378Z,97.52
2022-12-05T00:18:32.643Z,97.41
2022-12-05T00:19:32.647Z,97.52
2022-12-05T00:20:32.637Z,97.77
2022-12-05T00:21:32.621Z,97.52
2022-12-05T00:22:32.628Z,98.08
2022-12-05T00:23:32.613Z,97.98
2022-12-05T00:24:32.611Z,97.41
2022-12-05T00:25:32.597Z,97.52
2022-12-05T00:26:32.588Z,97.94
2022-12-05T00:28:14.629Z,98.04
2022-12-05T00:29:14.624Z,98.08
2022-12-05T00:30:15.727Z,97.83
2022-12-05T00:31:15.764Z,97.83
2022-12-05T00:32:15.788Z,97.52
2022-12-05T00:33:15.684Z,97.72
2022-12-05T00:34:15.677Z,97.41
2022-12-05T00:35:17.586Z,97.83
2022-12-05T00:36:15.670Z,97.83
2022-12-05T00:37:15.653Z,98.04
2022-12-05T00:38:15.652Z,97.00
2022-12-05T00:39:17.485Z,96.94
2022-12-05T00:40:15.640Z,98.04
2022-12-05T00:41:17.487Z,97.83
2022-12-05T00:42:15.612Z,97.83
2022-12-05T00:43:15.603Z,97.67
2022-12-05T00:44:15.602Z,97.46
2022-12-05T00:45:15.589Z,98.04
2022-12-05T00:46:15.676Z,97.72
2022-12-05T00:47:15.780Z,97.25
2022-12-05T00:48:15.564Z,97.52
2022-12-05T00:49:16.069Z,97.94
2022-12-05T00:50:15.547Z,97.98
2022-12-05T00:51:15.542Z,98.04
2022-12-05T00:52:15.529Z,97.94
2022-12-05T00:53:15.522Z,97.98
2022-12-05T00:54:15.663Z,97.72
2022-12-05T00:55:16.508Z,97.94
2022-12-05T00:56:16.498Z,97.94
2022-12-05T00:57:15.496Z,97.52
2022-12-05T00:58:15.485Z,97.72
2022-12-05T00:59:15.483Z,97.94
2022-12-05T01:00:15.471Z,97.83
2022-12-05T01:01:15.561Z,97.83
2022-12-05T01:02:16.242Z,97.72
2022-12-05T01:03:15.486Z,97.41
2022-12-05T01:04:15.439Z,97.94
2022-12-05T01:05:15.432Z,97.83
2022-12-05T01:06:15.438Z,98.04
2022-12-05T01:07:15.410Z,97.83
2022-12-05T01:08:15.458Z,97.83
2022-12-05T01:09:15.419Z,97.83
2022-12-05T01:10:15.398Z,98.04
2022-12-05T01:11:15.385Z,97.31
2022-12-05T01:12:16.451Z,97.00
2022-12-05T01:13:15.368Z,97.20
2022-12-05T01:14:15.395Z,97.41
2022-12-05T01:15:15.350Z,97.83
2022-12-05T01:16:17.208Z,97.94
2022-12-05T01:17:15.330Z,97.94
2022-12-05T01:18:15.331Z,97.72
2022-12-05T01:19:15.320Z,97.83
2022-12-05T01:20:15.930Z,97.62
2022-12-05T01:21:15.991Z,97.72
2022-12-05T01:22:15.292Z,97.62
2022-12-05T01:23:15.279Z,97.94
2022-12-05T01:24:15.271Z,96.79
2022-12-05T01:25:15.275Z,97.20
2022-12-05T01:26:15.267Z,97.56
2022-12-05T01:27:15.255Z,97.62
2022-12-05T01:28:15.245Z,97.72
2022-12-05T01:29:15.326Z,97.94
2022-12-05T01:30:17.023Z,97.83
2022-12-05T01:31:15.258Z,98.04
2022-12-05T01:32:15.384Z,98.04
2022-12-05T01:33:15.203Z,97.83
2022-12-05T01:34:15.207Z,97.72
2022-12-05T01:35:15.191Z,97.52
2022-12-05T01:36:15.180Z,97.72
2022-12-05T01:37:15.588Z,97.62
2022-12-05T01:38:15.166Z,97.72
2022-12-05T01:39:15.160Z,97.83
2022-12-05T01:40:15.158Z,97.83
2022-12-05T01:41:15.151Z,97.72
2022-12-05T01:42:15.141Z,97.52
2022-12-05T01:43:15.126Z,97.52
2022-12-05T01:44:15.126Z,97.62
2022-12-05T01:45:16.013Z,97.83
2022-12-05T01:46:15.166Z,97.83
2022-12-05T01:47:15.090Z,97.94
2022-12-05T01:48:15.091Z,98.04
2022-12-05T01:49:15.102Z,97.41
2022-12-05T01:50:15.066Z,97.94
2022-12-05T01:51:15.063Z,97.83
2022-12-05T01:52:15.048Z,98.35
2022-12-05T01:53:15.041Z,97.83
2022-12-05T01:54:15.418Z,98.04
2022-12-05T01:55:15.328Z,98.14
2022-12-05T01:56:15.023Z,98.04
2022-12-05T01:57:15.011Z,98.04
2022-12-05T01:58:15.016Z,98.19
2022-12-05T01:59:15.011Z,97.94
2022-12-05T02:00:14.987Z,98.35
2022-12-05T02:01:15.039Z,98.35
2022-12-05T02:02:15.531Z,98.35
2022-12-05T02:03:14.962Z,98.46
2022-12-05T02:04:14.956Z,98.56
2022-12-05T02:05:14.948Z,98.87
2022-12-05T02:06:14.972Z,98.46
2022-12-05T02:07:15.520Z,98.46
2022-12-05T02:08:14.978Z,98.56
2022-12-05T02:09:14.907Z,98.77
2022-12-05T02:10:14.912Z,98.77
2022-12-05T02:11:14.891Z,99.29
2022-12-05T02:12:14.887Z,98.97
2022-12-05T02:13:14.890Z,98.87
2022-12-05T02:14:14.875Z,98.77
2022-12-05T02:15:14.865Z,98.77
2022-12-05T02:16:14.932Z,98.66
2022-12-05T02:17:14.927Z,98.77
2022-12-05T02:18:14.829Z,98.66
2022-12-05T02:19:14.822Z,98.97
2022-12-05T02:20:14.827Z,99.18
2022-12-05T02:21:14.804Z,99.60
2022-12-05T02:22:14.809Z,98.87
2022-12-05T02:23:14.790Z,98.97
2022-12-05T02:24:14.795Z,99.40
2022-12-05T02:25:14.777Z,99.08
2022-12-05T02:26:14.780Z,99.08
2022-12-05T02:27:14.760Z,99.08
2022-12-05T02:28:15.506Z,98.87
2022-12-05T02:29:14.746Z,99.08
2022-12-05T02:30:14.744Z,99.50
2022-12-05T02:31:14.775Z,98.77
2022-12-05T02:32:14.725Z,98.87
2022-12-05T02:33:14.715Z,98.77
2022-12-05T02:34:14.708Z,99.60
2022-12-05T02:35:14.695Z,99.29
2022-12-05T02:36:14.697Z,99.50
2022-12-05T02:37:14.686Z,99.50
2022-12-05T02:38:14.674Z,99.54
2022-12-05T02:39:14.672Z,99.18
2022-12-05T02:40:14.660Z,99.18
2022-12-05T02:41:14.650Z,99.50
2022-12-05T02:42:14.640Z,99.50
2022-12-05T02:43:15.522Z,99.60
2022-12-05T02:44:14.630Z,99.18
2022-12-05T02:45:14.619Z,99.29
2022-12-05T02:46:15.583Z,99.08
2022-12-05T02:47:14.614Z,98.97
2022-12-05T02:48:14.597Z,98.87
2022-12-05T02:49:14.587Z,98.77
2022-12-05T02:50:14.583Z,98.56
2022-12-05T02:51:14.572Z,98.77
2022-12-05T02:52:14.618Z,98.87
2022-12-05T02:53:14.564Z,98.87
2022-12-05T02:54:14.543Z,98.56
2022-12-05T02:55:15.506Z,98.35
2022-12-05T02:56:14.534Z,98.35
2022-12-05T02:57:14.639Z,97.83
2022-12-05T02:58:14.528Z,98.25
2022-12-05T02:59:19.843Z,98.46
2022-12-05T03:00:16.498Z,97.94
2022-12-05T03:01:14.571Z,98.52
2022-12-05T03:02:14.491Z,98.35
2022-12-05T03:03:14.474Z,98.46
2022-12-05T03:04:14.510Z,98.35
2022-12-05T03:05:15.480Z,98.35
2022-12-05T03:06:14.454Z,98.46
2022-12-05T03:07:14.436Z,98.46
2022-12-05T03:08:14.499Z,98.35
2022-12-05T03:09:14.421Z,98.35
2022-12-05T03:10:14.423Z,98.25
2022-12-05T03:11:14.425Z,98.46
2022-12-05T03:12:14.401Z,98.14
2022-12-05T03:13:17.018Z,98.25
2022-12-05T03:14:14.381Z,98.31
2022-12-05T03:15:14.385Z,98.14
2022-12-05T03:16:15.425Z,98.25
2022-12-05T03:17:14.365Z,98.56
2022-12-05T03:18:14.361Z,98.46
2022-12-05T03:19:14.353Z,98.25
2022-12-05T03:20:14.360Z,98.46
2022-12-05T03:21:14.342Z,98.41
2022-12-05T03:22:14.316Z,98.25
2022-12-05T03:23:14.310Z,97.94
2022-12-05T03:24:14.312Z,97.83
2022-12-05T03:25:14.317Z,97.94
2022-12-05T03:26:14.291Z,97.58
2022-12-05T03:27:14.280Z,98.04
2022-12-05T03:28:14.272Z,97.94
2022-12-05T03:29:14.263Z,98.04
2022-12-05T03:30:14.256Z,97.94
2022-12-05T03:31:14.356Z,97.94
2022-12-05T03:32:14.264Z,98.41
2022-12-05T03:33:14.231Z,97.99
2022-12-05T03:34:14.233Z,97.94
2022-12-05T03:35:14.227Z,98.25
2022-12-05T03:36:14.213Z,98.31
2022-12-05T03:37:14.235Z,97.89
2022-12-05T03:38:14.191Z,98.10
2022-12-05T03:39:16.010Z,97.78
2022-12-05T03:40:14.223Z,97.83
2022-12-05T03:41:14.175Z,97.47
2022-12-05T03:42:15.013Z,97.62
2022-12-05T03:43:14.152Z,97.62
2022-12-05T03:44:15.091Z,97.58
2022-12-05T03:45:14.143Z,98.04
2022-12-05T03:46:14.206Z,98.04
2022-12-05T03:47:14.165Z,97.89
2022-12-05T03:48:14.132Z,97.62
2022-12-05T03:49:14.105Z,97.89
2022-12-05T03:50:14.108Z,97.94
2022-12-05T03:51:16.013Z,97.78
2022-12-05T03:52:14.086Z,98.14
2022-12-05T03:53:21.396Z,98.04
2022-12-05T03:54:16.063Z,98.56
2022-12-05T03:55:14.062Z,98.14
2022-12-05T03:56:14.050Z,98.35
2022-12-05T03:57:14.044Z,98.04
2022-12-05T03:58:14.038Z,98.46
2022-12-05T03:59:14.023Z,98.46
2022-12-05T04:00:14.028Z,98.66
2022-12-05T04:01:14.032Z,98.35
2022-12-05T04:02:14.006Z,98.56
2022-12-05T04:03:14.066Z,98.56
2022-12-05T04:04:13.985Z,98.87
2022-12-05T04:05:13.978Z,98.87
2022-12-05T04:06:13.971Z,98.77
2022-12-05T04:07:13.958Z,98.66
2022-12-05T04:08:14.023Z,99.08
2022-12-05T04:09:17.288Z,99.08
2022-12-05T04:10:14.939Z,98.93
2022-12-05T04:11:13.923Z,98.31
2022-12-05T04:12:14.532Z,98.10
2022-12-05T04:13:13.910Z,98.41
2022-12-05T04:14:13.919Z,97.89
2022-12-05T04:15:13.909Z,98.31
2022-12-05T04:16:13.943Z,98.25
2022-12-05T04:17:13.874Z,98.14
2022-12-05T04:18:13.868Z,97.62
2022-12-05T04:19:14.516Z,98.25
2022-12-05T04:20:13.898Z,98.60
2022-12-05T04:21:13.842Z,98.66
2022-12-05T04:22:13.848Z,98.66
2022-12-05T04:24:20.719Z,98.97
2022-12-05T04:25:21.547Z,98.87
2022-12-05T04:26:20.710Z,98.71
2022-12-05T04:27:21.534Z,99.02
2022-12-05T04:28:21.890Z,98.56
2022-12-05T04:29:20.693Z,99.29
2022-12-05T04:30:20.706Z,99.50
2022-12-05T04:31:20.718Z,99.50
2022-12-05T04:32:20.657Z,99.18
2022-12-05T04:33:20.661Z,99.08
2022-12-05T04:34:20.652Z,99.08
2022-12-05T04:35:20.642Z,98.97
2022-12-05T04:36:20.629Z,98.87
2022-12-05T04:37:20.631Z,98.56
2022-12-05T04:38:20.610Z,98.25
2022-12-05T04:39:21.062Z,98.35
2022-12-05T04:40:20.594Z,98.25
2022-12-05T04:41:20.588Z,98.82
2022-12-05T04:42:21.676Z,98.82
2022-12-05T04:43:21.670Z,99.18
2022-12-05T04:44:22.643Z,99.23
2022-12-05T04:45:21.664Z,99.50
2022-12-05T04:46:22.700Z,99.23
2022-12-05T04:47:21.649Z,99.75
2022-12-05T04:48:21.626Z,99.91
2022-12-05T04:49:22.648Z,99.99
2022-12-05T04:50:21.629Z,99.85
2022-12-05T04:51:21.611Z,99.91
2022-12-05T04:52:21.604Z,99.99
2022-12-05T04:53:21.602Z,99.99
2022-12-05T04:54:21.586Z,99.08
2022-12-05T04:55:21.633Z,99.50
2022-12-05T04:56:21.604Z,99.29
2022-12-05T04:57:22.562Z,98.97
2022-12-05T04:58:21.563Z,99.08
2022-12-05T04:59:21.546Z,98.97
2022-12-05T05:00:21.560Z,98.93
2022-12-05T05:01:21.583Z,98.83
2022-12-05T05:02:21.595Z,98.46
2022-12-05T05:03:21.570Z,97.94
2022-12-05T05:04:21.505Z,98.35
2022-12-05T05:05:23.132Z,98.25
2022-12-05T05:06:21.490Z,98.31
2022-12-05T05:07:22.128Z,98.20
2022-12-05T05:08:21.570Z,98.41
2022-12-05T05:09:21.471Z,98.31
2022-12-05T05:10:22.456Z,98.25
2022-12-05T05:11:21.449Z,97.94
2022-12-05T05:12:21.445Z,98.04
2022-12-05T05:13:21.461Z,98.25
2022-12-05T05:14:21.458Z,97.83
2022-12-05T05:15:22.052Z,98.25
2022-12-05T05:16:21.478Z,97.83
2022-12-05T05:17:21.417Z,97.94
2022-12-05T05:18:21.399Z,98.25
2022-12-05T05:19:24.054Z,98.14
2022-12-05T05:20:22.047Z,98.14
2022-12-05T05:21:21.368Z,97.72
2022-12-05T05:22:21.365Z,98.14
2022-12-05T05:23:21.373Z,97.58
2022-12-05T05:24:21.350Z,97.62
2022-12-05T05:25:21.359Z,97.41
2022-12-05T05:26:21.345Z,97.37
2022-12-05T05:27:21.337Z,97.62
2022-12-05T05:28:22.050Z,97.89
2022-12-05T05:29:21.307Z,97.72
2022-12-05T05:30:25.145Z,97.68
2022-12-05T05:31:22.558Z,97.83
2022-12-05T05:32:54.080Z,97.89
2022-12-05T05:33:21.312Z,97.58
2022-12-05T05:34:21.271Z,97.58
2022-12-05T05:35:21.267Z,97.74
2022-12-05T05:36:21.251Z,97.99
2022-12-05T05:37:21.246Z,97.99
2022-12-05T05:38:21.242Z,97.68
2022-12-05T05:39:21.226Z,97.64
2022-12-05T05:40:21.225Z,97.99
2022-12-05T05:41:21.221Z,97.47
2022-12-05T05:42:23.154Z,97.64
2022-12-05T05:43:21.221Z,96.95
2022-12-05T05:44:22.200Z,96.70
2022-12-05T05:45:21.187Z,96.59
2022-12-05T05:46:21.211Z,96.39
2022-12-05T05:47:21.177Z,96.91
2022-12-05T05:48:22.078Z,96.80
2022-12-05T05:49:21.160Z,96.70
2022-12-05T05:50:22.124Z,96.49
2022-12-05T05:51:23.076Z,95.56
2022-12-05T05:52:24.652Z,96.39
2022-12-05T05:53:21.149Z,96.14
2022-12-05T05:54:22.653Z,96.08
2022-12-05T05:55:21.099Z,95.72
2022-12-05T05:56:22.053Z,95.83
2022-12-05T05:57:22.100Z,96.24
2022-12-05T05:58:21.656Z,96.55
2022-12-05T05:59:21.117Z,96.55
2022-12-05T06:00:21.091Z,95.93
2022-12-05T06:01:21.115Z,95.83
2022-12-05T06:02:21.237Z,95.30
2022-12-05T06:03:21.204Z,96.03
2022-12-05T06:04:21.093Z,95.62
2022-12-05T06:05:21.023Z,96.24
2022-12-05T06:06:21.063Z,94.47
2022-12-05T06:07:21.014Z,94.68
2022-12-05T06:08:21.134Z,94.64
2022-12-05T06:09:20.994Z,95.26
2022-12-05T06:10:20.990Z,95.05
2022-12-05T06:11:25.853Z,94.78
2022-12-05T06:12:22.977Z,94.57
2022-12-05T06:13:20.974Z,94.89
2022-12-05T06:14:20.953Z,94.57
2022-12-05T06:15:20.945Z,94.53
2022-12-05T06:16:21.038Z,95.20
2022-12-05T06:17:20.953Z,94.95
2022-12-05T06:18:20.932Z,94.43
2022-12-05T06:19:20.919Z,94.78
2022-12-05T06:20:22.583Z,94.57
2022-12-05T06:21:20.903Z,95.40
2022-12-05T06:22:21.676Z,96.14
2022-12-05T06:23:21.588Z,95.78
2022-12-05T06:24:20.878Z,95.83
2022-12-05T06:25:20.863Z,95.83
2022-12-05T06:26:24.616Z,95.72
2022-12-05T06:27:20.853Z,95.78
2022-12-05T06:28:22.665Z,95.72
2022-12-05T06:29:25.336Z,95.62
2022-12-05T06:30:25.775Z,96.09
2022-12-05T06:31:21.706Z,96.20
2022-12-05T06:32:21.587Z,95.89
2022-12-05T06:33:20.806Z,96.14
2022-12-05T06:34:20.798Z,95.78
2022-12-05T06:35:22.655Z,95.57
2022-12-05T06:36:20.784Z,95.78
2022-12-05T06:37:21.673Z,95.78
2022-12-05T06:38:22.679Z,95.99
2022-12-05T06:39:22.677Z,95.78
2022-12-05T06:40:20.777Z,95.89
2022-12-05T06:41:20.752Z,95.67
2022-12-05T06:42:20.751Z,95.57
2022-12-05T06:43:20.735Z,95.83
2022-12-05T06:44:21.667Z,95.93
2022-12-05T06:45:20.724Z,96.76
2022-12-05T06:46:20.723Z,96.55
2022-12-05T06:47:20.704Z,96.45
2022-12-05T06:48:20.686Z,96.76
2022-12-05T06:49:23.148Z,96.55
2022-12-05T06:50:20.673Z,96.66
2022-12-05T06:51:20.668Z,96.76
2022-12-05T06:52:20.689Z,96.24
2022-12-05T06:53:20.645Z,96.45
2022-12-05T06:54:20.644Z,96.45
2022-12-05T06:55:20.637Z,96.45
2022-12-05T06:56:20.632Z,96.30
2022-12-05T06:57:20.624Z,95.57
2022-12-05T06:58:20.616Z,95.67
2022-12-05T06:59:20.599Z,95.89
2022-12-05T07:00:20.593Z,95.57
2022-12-05T07:01:20.678Z,95.67
2022-12-05T07:02:20.627Z,95.67
2022-12-05T07:03:20.567Z,95.78
2022-12-05T07:04:20.563Z,95.57
2022-12-05T07:05:20.575Z,95.89
2022-12-05T07:06:20.547Z,95.89
2022-12-05T07:07:20.650Z,95.78
2022-12-05T07:08:20.606Z,95.36
2022-12-05T07:09:20.561Z,95.89
2022-12-05T07:10:20.519Z,95.83
2022-12-05T07:11:20.520Z,96.03
2022-12-05T07:12:20.518Z,96.30
2022-12-05T07:13:20.519Z,96.24
2022-12-05T07:14:50.462Z,96.66
2022-12-05T07:15:22.487Z,96.55
2022-12-05T07:16:20.515Z,96.20
2022-12-05T07:17:20.476Z,96.41
2022-12-05T07:18:20.456Z,96.86
2022-12-05T07:19:20.441Z,96.61
2022-12-05T07:20:20.444Z,96.86
2022-12-05T07:21:20.420Z,97.13
2022-12-05T07:22:21.174Z,97.70
2022-12-05T07:23:20.418Z,97.55
2022-12-05T07:24:20.404Z,97.75
2022-12-05T07:25:20.410Z,97.91
2022-12-05T07:26:20.393Z,97.91
2022-12-05T07:27:26.654Z,97.70
2022-12-05T07:28:22.374Z,97.44
2022-12-05T07:29:21.098Z,97.65
2022-12-05T07:30:20.363Z,97.17
2022-12-05T07:31:20.409Z,97.49
2022-12-05T07:32:21.163Z,97.34
2022-12-05T07:33:20.344Z,97.38
2022-12-05T07:34:20.326Z,97.49
2022-12-05T07:35:20.316Z,97.55
2022-12-05T07:36:20.321Z,97.24
2022-12-05T07:37:20.320Z,97.13
2022-12-05T07:38:21.099Z,97.55
2022-12-05T07:39:20.289Z,97.49
2022-12-05T07:40:20.299Z,97.59
2022-12-05T07:41:20.278Z,97.80
2022-12-05T07:42:20.262Z,97.96
2022-12-05T07:43:20.252Z,98.01
2022-12-05T07:44:20.248Z,97.55
2022-12-05T07:45:20.235Z,97.75
2022-12-05T07:46:20.317Z,97.55
2022-12-05T07:47:20.269Z,97.44
2022-12-05T07:48:20.210Z,97.55
2022-12-05T07:49:20.218Z,97.65
2022-12-05T07:50:20.209Z,97.55
2022-12-05T07:51:20.185Z,97.65
2022-12-05T07:52:21.106Z,97.34
2022-12-05T07:53:20.177Z,97.55
2022-12-05T07:54:20.175Z,97.34
2022-12-05T07:55:20.159Z,97.24
2022-12-05T07:56:20.151Z,97.65
2022-12-05T07:57:20.163Z,97.34
2022-12-05T07:58:20.149Z,96.78
2022-12-05T07:59:20.137Z,96.82
2022-12-05T08:00:20.122Z,96.47
2022-12-05T08:01:20.167Z,96.57
2022-12-05T08:02:20.192Z,95.84
2022-12-05T08:03:20.100Z,95.53
2022-12-05T08:04:20.082Z,95.84
2022-12-05T08:05:20.101Z,95.53
2022-12-05T08:06:20.068Z,96.15
2022-12-05T08:07:20.076Z,95.84
2022-12-05T08:08:20.127Z,95.53
2022-12-05T08:09:20.059Z,95.63
2022-12-05T08:10:20.055Z,95.73
2022-12-05T08:11:20.043Z,96.04
2022-12-05T08:12:21.625Z,95.84
2022-12-05T08:13:20.041Z,95.73
2022-12-05T08:14:20.026Z,95.79
2022-12-05T08:15:20.606Z,95.69
2022-12-05T08:16:20.014Z,95.84
2022-12-05T08:17:19.979Z,95.79
2022-12-05T08:18:24.390Z,95.84
2022-12-05T08:19:21.960Z,96.25
2022-12-05T08:20:20.006Z,96.15
2022-12-05T08:21:53.160Z,96.88
2022-12-05T08:22:19.938Z,96.78
2022-12-05T08:23:19.936Z,96.25
2022-12-05T08:24:19.923Z,95.69
2022-12-05T08:25:19.912Z,95.73
2022-12-05T08:26:19.928Z,95.73
2022-12-05T08:27:19.902Z,96.04
2022-12-05T08:28:19.909Z,96.41
2022-12-05T08:29:19.895Z,97.65
2022-12-05T08:30:20.716Z,97.55
2022-12-05T08:31:19.954Z,97.86
2022-12-05T08:32:19.862Z,97.61
2022-12-05T08:33:19.849Z,97.61
2022-12-05T08:34:19.849Z,96.98
2022-12-05T08:35:19.833Z,97.61
2022-12-05T08:36:19.825Z,97.19
2022-12-05T08:37:19.879Z,97.81
2022-12-05T08:38:19.811Z,97.71
2022-12-05T08:39:20.646Z,97.03
2022-12-05T08:40:19.801Z,97.34
2022-12-05T08:41:19.789Z,97.75
2022-12-05T08:42:19.794Z,97.75
2022-12-05T08:43:19.778Z,97.75
2022-12-05T08:44:19.763Z,97.75
2022-12-05T08:45:19.781Z,97.19
2022-12-05T08:46:19.787Z,97.40
2022-12-05T08:47:19.768Z,97.75
2022-12-05T08:48:22.388Z,97.86
2022-12-05T08:49:28.239Z,97.55
2022-12-05T08:50:19.714Z,97.71
2022-12-05T08:51:19.722Z,96.36
2022-12-05T08:52:19.708Z,96.57
2022-12-05T08:53:20.251Z,96.88
2022-12-05T08:54:19.696Z,96.62
2022-12-05T08:55:19.678Z,96.31
2022-12-05T08:56:26.574Z,95.90
2022-12-05T08:57:21.669Z,95.69
2022-12-05T08:58:19.658Z,95.69
2022-12-05T08:59:19.658Z,95.79
2022-12-05T09:00:19.753Z,95.69
2022-12-05T09:01:19.702Z,95.69
2022-12-05T09:02:19.679Z,95.59
2022-12-05T09:03:19.617Z,96.31
2022-12-05T09:04:19.615Z,95.90
2022-12-05T09:05:28.048Z,96.37
2022-12-05T09:06:21.602Z,95.75
2022-12-05T09:07:19.590Z,96.06
2022-12-05T09:08:19.602Z,94.51
2022-12-05T09:09:19.590Z,94.40
2022-12-05T09:10:19.565Z,95.23
2022-12-05T09:11:19.591Z,95.23
2022-12-05T09:12:19.554Z,94.71
2022-12-05T09:13:19.552Z,94.88
2022-12-05T09:14:19.540Z,94.20
2022-12-05T09:15:19.541Z,94.36
2022-12-05T09:16:19.564Z,94.15
2022-12-05T09:17:19.548Z,94.78
2022-12-05T09:18:19.508Z,93.53
2022-12-05T09:19:19.504Z,93.01
2022-12-05T09:20:19.489Z,93.01
2022-12-05T09:21:19.492Z,93.53
2022-12-05T09:22:19.769Z,93.59
2022-12-05T09:23:19.476Z,93.38
2022-12-05T09:24:19.482Z,92.97
2022-12-05T09:25:19.451Z,93.18
2022-12-05T09:26:19.457Z,92.61
2022-12-05T09:27:19.437Z,92.76
2022-12-05T09:28:19.432Z,93.02
2022-12-05T09:29:19.418Z,92.72
2022-12-05T09:30:19.411Z,92.93
2022-12-05T09:31:19.468Z,92.41
2022-12-05T09:32:19.411Z,92.66
2022-12-05T09:33:19.401Z,92.20
2022-12-05T09:34:20.369Z,92.30
2022-12-05T09:35:20.212Z,92.35
2022-12-05T09:36:19.374Z,92.10
2022-12-05T09:37:38.267Z,92.24
2022-12-05T09:38:21.363Z,92.55
2022-12-05T09:39:20.150Z,92.24
2022-12-05T09:40:19.336Z,92.35
2022-12-05T09:41:19.336Z,92.20
2022-12-05T09:42:19.327Z,91.93
2022-12-05T09:43:19.317Z,92.30
2022-12-05T09:44:19.311Z,92.55
2022-12-05T09:45:19.297Z,92.93
2022-12-05T09:46:19.369Z,92.45
2022-12-05T09:47:19.284Z,92.45
2022-12-05T09:48:19.279Z,92.76
2022-12-05T09:49:19.274Z,92.82
2022-12-05T09:50:19.263Z,92.97
2022-12-05T09:51:21.164Z,93.02
2022-12-05T09:52:19.246Z,92.82
2022-12-05T09:53:20.226Z,93.23
2022-12-05T09:54:19.223Z,92.61
2022-12-05T09:55:20.275Z,93.02
2022-12-05T09:56:20.730Z,92.72
2022-12-05T09:57:19.208Z,93.28
2022-12-05T09:58:19.202Z,93.38
2022-12-05T09:59:19.182Z,93.49
2022-12-05T10:00:20.155Z,93.95
2022-12-05T10:01:19.207Z,94.26
2022-12-05T10:02:19.166Z,94.26
2022-12-05T10:03:19.163Z,93.74
2022-12-05T10:04:19.208Z,94.63
2022-12-05T10:05:19.178Z,94.15
2022-12-05T10:06:19.131Z,95.29
2022-12-05T10:07:19.132Z,94.67
2022-12-05T10:08:19.197Z,94.67
2022-12-05T10:09:19.108Z,94.57
2022-12-05T10:10:20.498Z,94.98
2022-12-05T10:11:20.098Z,95.09
2022-12-05T10:12:19.093Z,94.46
2022-12-05T10:13:19.089Z,94.57
2022-12-05T10:14:19.084Z,94.67
2022-12-05T10:15:19.068Z,94.36
2022-12-05T10:16:19.117Z,94.46
2022-12-05T10:17:19.057Z,94.15
2022-12-05T10:18:21.652Z,94.05
2022-12-05T10:19:19.042Z,93.84
2022-12-05T10:20:19.029Z,93.84
2022-12-05T10:21:19.011Z,94.67
2022-12-05T10:22:20.874Z,94.53
2022-12-05T10:23:48.857Z,93.80
2022-12-05T10:24:20.996Z,93.49
2022-12-05T10:25:19.013Z,93.90
2022-12-05T10:26:19.736Z,93.75
2022-12-05T10:27:19.654Z,93.33
2022-12-05T10:28:20.736Z,93.23
2022-12-05T10:29:19.655Z,93.23
2022-12-05T10:30:18.938Z,92.93
2022-12-05T10:31:19.050Z,93.02
2022-12-05T10:32:18.926Z,93.13
2022-12-05T10:33:18.918Z,92.57
2022-12-05T10:34:18.917Z,92.68
2022-12-05T10:35:19.901Z,92.72
2022-12-05T10:36:18.891Z,92.68
2022-12-05T10:37:18.893Z,92.36
2022-12-05T10:38:18.879Z,92.36
2022-12-05T10:39:18.867Z,91.74
2022-12-05T10:40:18.867Z,92.36
2022-12-05T10:41:18.854Z,92.05
2022-12-05T10:42:18.852Z,92.36
2022-12-05T10:43:18.841Z,92.36
2022-12-05T10:44:18.835Z,92.47
2022-12-05T10:45:18.825Z,92.57
2022-12-05T10:46:18.862Z,92.47
2022-12-05T10:47:21.770Z,92.16
2022-12-05T10:48:18.805Z,92.26
2022-12-05T10:49:18.784Z,92.57
2022-12-05T10:50:21.677Z,92.47
2022-12-05T10:51:18.789Z,92.47
2022-12-05T10:52:18.798Z,92.57
2022-12-05T10:53:18.781Z,92.78
2022-12-05T10:54:18.758Z,92.43
2022-12-05T10:55:18.748Z,92.36
2022-12-05T10:56:34.049Z,92.57
2022-12-05T10:57:20.746Z,92.05
2022-12-05T10:58:18.722Z,92.57
2022-12-05T10:59:18.732Z,92.82
2022-12-05T11:00:18.712Z,93.23
2022-12-05T11:01:18.795Z,93.44
2022-12-05T11:02:18.776Z,92.47
2022-12-05T11:03:19.239Z,92.05
2022-12-05T11:04:18.676Z,92.16
2022-12-05T11:05:18.703Z,92.47
2022-12-05T11:06:19.235Z,92.68
2022-12-05T11:07:18.670Z,92.47
2022-12-05T11:08:19.583Z,92.05
2022-12-05T11:09:19.634Z,92.47
2022-12-05T11:10:23.574Z,92.05
2022-12-05T11:11:20.619Z,92.78
2022-12-05T11:12:18.620Z,92.05
2022-12-05T11:13:18.615Z,91.95
2022-12-05T11:14:18.594Z,92.16
2022-12-05T11:15:18.600Z,91.78
2022-12-05T11:16:19.818Z,92.05
2022-12-05T11:17:18.570Z,92.05
2022-12-05T11:18:19.169Z,92.16
2022-12-05T11:19:18.558Z,92.36
2022-12-05T11:20:19.281Z,92.47
2022-12-05T11:21:19.169Z,92.57
2022-12-05T11:22:18.561Z,92.78
2022-12-05T11:23:18.526Z,92.88
2022-12-05T11:24:19.248Z,92.57
2022-12-05T11:25:18.518Z,91.95
2022-12-05T11:26:18.519Z,92.57
2022-12-05T11:27:19.169Z,92.32
2022-12-05T11:28:18.484Z,92.36
2022-12-05T11:29:18.484Z,92.26
2022-12-05T11:30:18.476Z,91.85
2022-12-05T11:31:18.523Z,92.05
2022-12-05T11:32:19.464Z,92.43
2022-12-05T11:33:18.451Z,92.36
2022-12-05T11:34:21.165Z,92.43
2022-12-05T11:35:18.483Z,92.32
2022-12-05T11:36:19.129Z,92.36
2022-12-05T11:37:18.423Z,92.16
2022-12-05T11:38:18.407Z,91.70
2022-12-05T11:39:18.401Z,92.11
2022-12-05T11:40:28.066Z,92.36
2022-12-05T11:41:23.159Z,92.16
2022-12-05T11:42:20.277Z,91.91
2022-12-05T11:43:18.359Z,92.32
2022-12-05T11:44:19.249Z,92.32
2022-12-05T11:45:18.354Z,92.01
2022-12-05T11:46:22.234Z,91.49
2022-12-05T11:47:20.333Z,92.11
2022-12-05T11:48:18.322Z,91.70
2022-12-05T11:49:18.316Z,92.01
2022-12-05T11:50:20.180Z,91.80
2022-12-05T11:51:19.164Z,91.80
2022-12-05T11:52:18.296Z,91.91
2022-12-05T11:53:18.287Z,92.43
2022-12-05T11:54:35.609Z,91.91
2022-12-05T11:55:21.436Z,91.97
2022-12-05T11:56:18.789Z,92.32
2022-12-05T11:57:18.246Z,91.97
2022-12-05T11:58:18.267Z,92.38
2022-12-05T11:59:21.188Z,91.97
2022-12-05T12:00:18.243Z,91.97
2022-12-05T12:01:18.220Z,91.09
2022-12-05T12:02:18.320Z,90.20
2022-12-05T12:03:18.301Z,90.93
2022-12-05T12:04:18.193Z,91.14
2022-12-05T12:05:19.185Z,91.03
2022-12-05T12:06:20.171Z,91.66
2022-12-05T12:07:18.202Z,92.07
2022-12-05T12:08:18.260Z,91.97
2022-12-05T12:09:18.160Z,92.44
2022-12-05T12:10:18.143Z,91.45
2022-12-05T12:11:18.134Z,91.20
2022-12-05T12:12:20.753Z,91.20
2022-12-05T12:13:18.135Z,90.78
2022-12-05T12:14:18.151Z,90.68
2022-12-05T12:15:18.149Z,91.20
2022-12-05T12:16:18.207Z,91.09
2022-12-05T12:17:18.097Z,91.86
2022-12-05T12:18:18.770Z,91.91
2022-12-05T12:20:28.799Z,92.84
2022-12-05T12:21:31.648Z,93.15
2022-12-05T12:22:28.709Z,93.15
2022-12-05T12:23:28.857Z,92.98
2022-12-05T12:24:28.680Z,93.56
2022-12-05T12:25:28.670Z,93.40
2022-12-05T12:26:28.671Z,93.40
2022-12-05T12:27:28.679Z,93.35
2022-12-05T12:28:28.700Z,93.77
2022-12-05T12:29:28.642Z,93.25
2022-12-05T12:30:28.662Z,93.50
2022-12-05T12:31:28.699Z,93.35
2022-12-05T12:32:28.619Z,94.33
2022-12-05T12:33:28.682Z,93.40
2022-12-05T12:34:29.785Z,93.50
2022-12-05T12:35:30.697Z,94.33
2022-12-05T12:36:30.714Z,93.91
2022-12-05T12:37:29.704Z,94.02
2022-12-05T12:38:29.721Z,94.02
2022-12-05T12:39:30.573Z,94.43
2022-12-05T12:40:29.789Z,94.43
2022-12-05T12:41:29.735Z,94.43
2022-12-05T12:42:29.652Z,94.43
2022-12-05T12:43:53.291Z,93.60
2022-12-05T12:44:31.684Z,93.40
2022-12-05T12:45:31.630Z,93.40
2022-12-05T12:46:30.827Z,93.29
2022-12-05T12:47:29.705Z,93.40
2022-12-05T12:48:29.610Z,93.40
2022-12-05T12:49:29.659Z,93.29
2022-12-05T12:50:29.670Z,92.98
2022-12-05T12:51:32.049Z,93.29
2022-12-05T12:52:29.565Z,93.60
2022-12-05T12:53:29.569Z,94.02
2022-12-05T12:55:01.560Z,93.50
2022-12-05T12:55:31.648Z,93.60